Terminal Aerodrome Forecast
Issued by NWS Pocatello, ID

Home | Current Version | Previous Version | Text Only | Print | Product List | Glossary On
Versions: 1 2 3 4 5 6 7 8 9 10 11 12 13 14 15 16 17 18 19 20 21 22 23
292
FTUS45 KPIH 182239 AAB
TAFIDA
TAF AMD
KIDA 182239Z 1823/1918 21014G24KT P6SM VCSH SCT020
     FM190500 21014KT P6SM VCSH BKN007 OVC020
     FM191300 35010G20KT P6SM VCSH SCT010 OVC030=

USA.gov is the U.S. government's official web portal to all federal, state and local government web resources and services.